sensor_id;sensor_type;location;lat;lon;timestamp;P1;durP1;ratioP1;P2;durP2;ratioP2
19869;SDS011;10097;50.862;4.696;2022-07-06T00:01:35;4.27;;;1.63;;
19869;SDS011;10097;50.862;4.696;2022-07-06T00:04:01;9.40;;;2.00;;
19869;SDS011;10097;50.862;4.696;2022-07-06T00:06:27;5.63;;;1.80;;
19869;SDS011;10097;50.862;4.696;2022-07-06T00:08:53;4.60;;;2.00;;
19869;SDS011;10097;50.862;4.696;2022-07-06T00:11:18;2.63;;;1.60;;
19869;SDS011;10097;50.862;4.696;2022-07-06T00:13:44;3.67;;;1.70;;
19869;SDS011;10097;50.862;4.696;2022-07-06T00:16:10;2.63;;;1.67;;
19869;SDS011;10097;50.862;4.696;2022-07-06T00:18:36;5.67;;;1.80;;
19869;SDS011;10097;50.862;4.696;2022-07-06T00:21:02;5.17;;;1.73;;
19869;SDS011;10097;50.862;4.696;2022-07-06T00:23:27;6.10;;;1.80;;
19869;SDS011;10097;50.862;4.696;2022-07-06T00:25:53;6.80;;;1.90;;
19869;SDS011;10097;50.862;4.696;2022-07-06T00:28:19;4.73;;;1.77;;
19869;SDS011;10097;50.862;4.696;2022-07-06T00:30:44;5.50;;;1.80;;
19869;SDS011;10097;50.862;4.696;2022-07-06T00:33:10;6.93;;;2.13;;
19869;SDS011;10097;50.862;4.696;2022-07-06T00:35:36;4.80;;;1.87;;
19869;SDS011;10097;50.862;4.696;2022-07-06T00:38:02;5.90;;;2.43;;
19869;SDS011;10097;50.862;4.696;2022-07-06T00:40:28;8.40;;;2.77;;
19869;SDS011;10097;50.862;4.696;2022-07-06T00:42:55;5.83;;;1.80;;
19869;SDS011;10097;50.862;4.696;2022-07-06T00:45:21;8.10;;;1.83;;
19869;SDS011;10097;50.862;4.696;2022-07-06T00:47:47;7.57;;;2.03;;
19869;SDS011;10097;50.862;4.696;2022-07-06T00:50:14;4.80;;;1.83;;
19869;SDS011;10097;50.862;4.696;2022-07-06T00:52:50;3.40;;;1.80;;
19869;SDS011;10097;50.862;4.696;2022-07-06T00:55:16;8.50;;;2.60;;
19869;SDS011;10097;50.862;4.696;2022-07-06T00:57:44;8.87;;;2.50;;
19869;SDS011;10097;50.862;4.696;2022-07-06T01:00:11;5.30;;;2.10;;
19869;SDS011;10097;50.862;4.696;2022-07-06T01:02:42;5.37;;;2.40;;
19869;SDS011;10097;50.862;4.696;2022-07-06T01:05:11;4.73;;;1.97;;
19869;SDS011;10097;50.862;4.696;2022-07-06T01:07:38;5.17;;;1.70;;
19869;SDS011;10097;50.862;4.696;2022-07-06T01:10:06;5.60;;;2.20;;
19869;SDS011;10097;50.862;4.696;2022-07-06T01:12:34;7.87;;;2.17;;
19869;SDS011;10097;50.862;4.696;2022-07-06T01:15:05;7.60;;;2.00;;
19869;SDS011;10097;50.862;4.696;2022-07-06T01:17:36;7.67;;;2.17;;
19869;SDS011;10097;50.862;4.696;2022-07-06T01:20:22;4.10;;;1.70;;
19869;SDS011;10097;50.862;4.696;2022-07-06T01:22:49;6.20;;;2.33;;
19869;SDS011;10097;50.862;4.696;2022-07-06T01:25:16;4.63;;;1.53;;
19869;SDS011;10097;50.862;4.696;2022-07-06T01:27:42;6.97;;;2.13;;
19869;SDS011;10097;50.862;4.696;2022-07-06T01:30:09;5.17;;;2.00;;
19869;SDS011;10097;50.862;4.696;2022-07-06T01:32:39;7.97;;;2.27;;
19869;SDS011;10097;50.862;4.696;2022-07-06T01:35:06;5.63;;;2.10;;
19869;SDS011;10097;50.862;4.696;2022-07-06T01:37:33;5.53;;;2.17;;
19869;SDS011;10097;50.862;4.696;2022-07-06T01:39:59;4.93;;;2.07;;
19869;SDS011;10097;50.862;4.696;2022-07-06T01:42:26;5.30;;;2.07;;
19869;SDS011;10097;50.862;4.696;2022-07-06T01:44:52;7.13;;;2.30;;
19869;SDS011;10097;50.862;4.696;2022-07-06T01:47:18;4.50;;;2.20;;
19869;SDS011;10097;50.862;4.696;2022-07-06T01:49:43;7.47;;;2.10;;
19869;SDS011;10097;50.862;4.696;2022-07-06T01:52:09;4.53;;;1.90;;
19869;SDS011;10097;50.862;4.696;2022-07-06T01:54:35;3.70;;;2.00;;
19869;SDS011;10097;50.862;4.696;2022-07-06T01:57:01;6.80;;;2.17;;
19869;SDS011;10097;50.862;4.696;2022-07-06T01:59:29;6.90;;;2.40;;
19869;SDS011;10097;50.862;4.696;2022-07-06T02:01:55;4.17;;;1.70;;
19869;SDS011;10097;50.862;4.696;2022-07-06T02:04:20;4.00;;;2.10;;
19869;SDS011;10097;50.862;4.696;2022-07-06T02:06:46;4.13;;;2.00;;
19869;SDS011;10097;50.862;4.696;2022-07-06T02:09:12;6.63;;;2.07;;
19869;SDS011;10097;50.862;4.696;2022-07-06T02:11:37;7.20;;;2.13;;
19869;SDS011;10097;50.862;4.696;2022-07-06T02:14:06;6.10;;;2.20;;
19869;SDS011;10097;50.862;4.696;2022-07-06T02:16:35;5.97;;;2.37;;
19869;SDS011;10097;50.862;4.696;2022-07-06T02:19:01;6.57;;;2.23;;
19869;SDS011;10097;50.862;4.696;2022-07-06T02:21:27;7.10;;;2.20;;
19869;SDS011;10097;50.862;4.696;2022-07-06T02:23:53;7.23;;;2.13;;
19869;SDS011;10097;50.862;4.696;2022-07-06T02:26:18;6.40;;;2.43;;
19869;SDS011;10097;50.862;4.696;2022-07-06T02:28:44;5.13;;;2.20;;
19869;SDS011;10097;50.862;4.696;2022-07-06T02:31:12;4.50;;;1.73;;
19869;SDS011;10097;50.862;4.696;2022-07-06T02:33:38;7.63;;;2.43;;
19869;SDS011;10097;50.862;4.696;2022-07-06T02:36:04;4.83;;;2.00;;
19869;SDS011;10097;50.862;4.696;2022-07-06T02:38:30;5.40;;;2.00;;
19869;SDS011;10097;50.862;4.696;2022-07-06T02:40:55;5.73;;;2.00;;
19869;SDS011;10097;50.862;4.696;2022-07-06T02:43:21;6.13;;;2.07;;
19869;SDS011;10097;50.862;4.696;2022-07-06T02:45:50;4.17;;;2.30;;
19869;SDS011;10097;50.862;4.696;2022-07-06T02:48:16;6.50;;;2.20;;
19869;SDS011;10097;50.862;4.696;2022-07-06T02:50:42;6.67;;;2.07;;
19869;SDS011;10097;50.862;4.696;2022-07-06T02:53:08;3.87;;;2.00;;
19869;SDS011;10097;50.862;4.696;2022-07-06T02:55:34;5.47;;;2.07;;
19869;SDS011;10097;50.862;4.696;2022-07-06T02:57:59;6.10;;;2.53;;
19869;SDS011;10097;50.862;4.696;2022-07-06T03:00:25;5.20;;;2.17;;
19869;SDS011;10097;50.862;4.696;2022-07-06T03:02:53;9.30;;;2.97;;
19869;SDS011;10097;50.862;4.696;2022-07-06T03:05:19;5.23;;;2.10;;
19869;SDS011;10097;50.862;4.696;2022-07-06T03:07:44;4.70;;;2.10;;
19869;SDS011;10097;50.862;4.696;2022-07-06T03:10:10;6.53;;;2.30;;
19869;SDS011;10097;50.862;4.696;2022-07-06T03:12:36;5.63;;;1.97;;
19869;SDS011;10097;50.862;4.696;2022-07-06T03:15:01;7.87;;;2.43;;
19869;SDS011;10097;50.862;4.696;2022-07-06T03:17:27;6.67;;;2.17;;
19869;SDS011;10097;50.862;4.696;2022-07-06T03:19:53;4.20;;;1.80;;
19869;SDS011;10097;50.862;4.696;2022-07-06T03:22:18;7.53;;;2.47;;
19869;SDS011;10097;50.862;4.696;2022-07-06T03:24:47;5.07;;;2.00;;
19869;SDS011;10097;50.862;4.696;2022-07-06T03:27:13;10.50;;;2.57;;
19869;SDS011;10097;50.862;4.696;2022-07-06T03:29:40;6.60;;;2.10;;
19869;SDS011;10097;50.862;4.696;2022-07-06T03:32:05;6.63;;;2.47;;
19869;SDS011;10097;50.862;4.696;2022-07-06T03:34:31;5.03;;;2.27;;
19869;SDS011;10097;50.862;4.696;2022-07-06T03:36:57;4.10;;;1.90;;
19869;SDS011;10097;50.862;4.696;2022-07-06T03:39:23;4.57;;;1.90;;
19869;SDS011;10097;50.862;4.696;2022-07-06T03:41:48;7.73;;;2.33;;
19869;SDS011;10097;50.862;4.696;2022-07-06T03:44:14;4.63;;;2.13;;
19869;SDS011;10097;50.862;4.696;2022-07-06T03:46:39;4.53;;;2.33;;
19869;SDS011;10097;50.862;4.696;2022-07-06T03:49:05;4.83;;;2.03;;
19869;SDS011;10097;50.862;4.696;2022-07-06T03:51:31;6.90;;;2.53;;
19869;SDS011;10097;50.862;4.696;2022-07-06T03:53:56;5.73;;;2.40;;
19869;SDS011;10097;50.862;4.696;2022-07-06T03:56:22;7.53;;;2.70;;
19869;SDS011;10097;50.862;4.696;2022-07-06T03:58:54;4.73;;;2.20;;
19869;SDS011;10097;50.862;4.696;2022-07-06T04:01:27;5.70;;;2.27;;
19869;SDS011;10097;50.862;4.696;2022-07-06T04:03:53;6.77;;;2.37;;
19869;SDS011;10097;50.862;4.696;2022-07-06T04:06:19;5.13;;;2.40;;
19869;SDS011;10097;50.862;4.696;2022-07-06T04:08:45;6.83;;;2.37;;
19869;SDS011;10097;50.862;4.696;2022-07-06T04:11:11;6.73;;;2.20;;
19869;SDS011;10097;50.862;4.696;2022-07-06T04:13:36;5.83;;;2.20;;
19869;SDS011;10097;50.862;4.696;2022-07-06T04:16:04;8.13;;;2.33;;
19869;SDS011;10097;50.862;4.696;2022-07-06T04:18:30;5.90;;;2.20;;
19869;SDS011;10097;50.862;4.696;2022-07-06T04:20:55;6.27;;;2.57;;
19869;SDS011;10097;50.862;4.696;2022-07-06T04:23:22;8.67;;;2.27;;
19869;SDS011;10097;50.862;4.696;2022-07-06T04:25:48;5.77;;;2.50;;
19869;SDS011;10097;50.862;4.696;2022-07-06T04:28:14;8.03;;;2.43;;
19869;SDS011;10097;50.862;4.696;2022-07-06T04:30:39;9.90;;;2.80;;
19869;SDS011;10097;50.862;4.696;2022-07-06T04:33:05;5.50;;;2.30;;
19869;SDS011;10097;50.862;4.696;2022-07-06T04:35:31;4.93;;;2.07;;
19869;SDS011;10097;50.862;4.696;2022-07-06T04:37:56;5.07;;;2.47;;
19869;SDS011;10097;50.862;4.696;2022-07-06T04:40:22;7.10;;;2.73;;
19869;SDS011;10097;50.862;4.696;2022-07-06T04:42:47;7.67;;;2.47;;
19869;SDS011;10097;50.862;4.696;2022-07-06T04:45:13;4.80;;;2.37;;
19869;SDS011;10097;50.862;4.696;2022-07-06T04:47:39;8.47;;;2.90;;
19869;SDS011;10097;50.862;4.696;2022-07-06T04:50:05;7.83;;;2.63;;
19869;SDS011;10097;50.862;4.696;2022-07-06T04:52:31;4.97;;;2.43;;
19869;SDS011;10097;50.862;4.696;2022-07-06T04:54:57;6.77;;;3.00;;
19869;SDS011;10097;50.862;4.696;2022-07-06T04:57:22;7.23;;;2.87;;
19869;SDS011;10097;50.862;4.696;2022-07-06T04:59:50;6.77;;;3.00;;
19869;SDS011;10097;50.862;4.696;2022-07-06T05:02:16;9.70;;;3.70;;
19869;SDS011;10097;50.862;4.696;2022-07-06T05:04:45;12.47;;;3.37;;
19869;SDS011;10097;50.862;4.696;2022-07-06T05:07:11;5.17;;;2.53;;
19869;SDS011;10097;50.862;4.696;2022-07-06T05:09:36;10.13;;;3.30;;
19869;SDS011;10097;50.862;4.696;2022-07-06T05:12:02;5.47;;;2.47;;
19869;SDS011;10097;50.862;4.696;2022-07-06T05:14:28;7.73;;;2.80;;
19869;SDS011;10097;50.862;4.696;2022-07-06T05:16:54;7.47;;;2.67;;
19869;SDS011;10097;50.862;4.696;2022-07-06T05:19:19;7.10;;;2.40;;
19869;SDS011;10097;50.862;4.696;2022-07-06T05:21:45;6.33;;;2.20;;
19869;SDS011;10097;50.862;4.696;2022-07-06T05:24:10;7.47;;;2.70;;
19869;SDS011;10097;50.862;4.696;2022-07-06T05:26:36;7.77;;;2.43;;
19869;SDS011;10097;50.862;4.696;2022-07-06T05:29:02;5.13;;;2.13;;
19869;SDS011;10097;50.862;4.696;2022-07-06T05:31:27;5.73;;;2.63;;
19869;SDS011;10097;50.862;4.696;2022-07-06T05:33:53;7.23;;;2.60;;
19869;SDS011;10097;50.862;4.696;2022-07-06T05:36:19;7.17;;;2.43;;
19869;SDS011;10097;50.862;4.696;2022-07-06T05:38:44;7.93;;;2.40;;
19869;SDS011;10097;50.862;4.696;2022-07-06T05:41:10;8.17;;;2.73;;
19869;SDS011;10097;50.862;4.696;2022-07-06T05:43:36;7.10;;;2.30;;
19869;SDS011;10097;50.862;4.696;2022-07-06T05:46:02;7.77;;;2.60;;
19869;SDS011;10097;50.862;4.696;2022-07-06T05:48:28;6.97;;;2.57;;
19869;SDS011;10097;50.862;4.696;2022-07-06T05:51:13;6.20;;;2.60;;
19869;SDS011;10097;50.862;4.696;2022-07-06T05:53:39;6.20;;;2.67;;
19869;SDS011;10097;50.862;4.696;2022-07-06T05:56:05;7.33;;;2.47;;
19869;SDS011;10097;50.862;4.696;2022-07-06T05:58:33;9.40;;;2.67;;
19869;SDS011;10097;50.862;4.696;2022-07-06T06:00:59;7.60;;;3.30;;
19869;SDS011;10097;50.862;4.696;2022-07-06T06:03:25;9.43;;;2.80;;
19869;SDS011;10097;50.862;4.696;2022-07-06T06:05:50;8.97;;;3.07;;
19869;SDS011;10097;50.862;4.696;2022-07-06T06:08:16;10.03;;;3.07;;
19869;SDS011;10097;50.862;4.696;2022-07-06T06:10:42;8.13;;;3.27;;
19869;SDS011;10097;50.862;4.696;2022-07-06T06:13:07;10.30;;;3.10;;
19869;SDS011;10097;50.862;4.696;2022-07-06T06:15:33;7.53;;;2.90;;
19869;SDS011;10097;50.862;4.696;2022-07-06T06:17:59;9.70;;;3.30;;
19869;SDS011;10097;50.862;4.696;2022-07-06T06:20:26;10.83;;;2.77;;
19869;SDS011;10097;50.862;4.696;2022-07-06T06:25:37;9.17;;;2.90;;
19869;SDS011;10097;50.862;4.696;2022-07-06T06:28:04;5.23;;;2.83;;
19869;SDS011;10097;50.862;4.696;2022-07-06T06:30:31;8.73;;;3.40;;
19869;SDS011;10097;50.862;4.696;2022-07-06T06:33:10;8.27;;;2.80;;
19869;SDS011;10097;50.862;4.696;2022-07-06T06:35:38;6.88;;;2.58;;
19869;SDS011;10097;50.862;4.696;2022-07-06T06:38:10;10.00;;;3.43;;
19869;SDS011;10097;50.862;4.696;2022-07-06T06:40:36;11.10;;;3.47;;
19869;SDS011;10097;50.862;4.696;2022-07-06T06:43:03;10.23;;;3.10;;
19869;SDS011;10097;50.862;4.696;2022-07-06T06:45:29;9.45;;;2.83;;
19869;SDS011;10097;50.862;4.696;2022-07-06T06:47:58;8.80;;;3.15;;
19869;SDS011;10097;50.862;4.696;2022-07-06T06:50:28;8.60;;;2.75;;
19869;SDS011;10097;50.862;4.696;2022-07-06T06:52:56;8.70;;;2.78;;
19869;SDS011;10097;50.862;4.696;2022-07-06T06:55:25;7.57;;;2.60;;
19869;SDS011;10097;50.862;4.696;2022-07-06T06:57:50;9.48;;;2.50;;
19869;SDS011;10097;50.862;4.696;2022-07-06T07:00:16;10.40;;;3.03;;
19869;SDS011;10097;50.862;4.696;2022-07-06T07:02:42;8.70;;;3.00;;
19869;SDS011;10097;50.862;4.696;2022-07-06T07:05:09;11.27;;;3.20;;
19869;SDS011;10097;50.862;4.696;2022-07-06T07:07:35;9.73;;;2.60;;
19869;SDS011;10097;50.862;4.696;2022-07-06T07:10:01;6.32;;;2.30;;
19869;SDS011;10097;50.862;4.696;2022-07-06T07:12:28;4.88;;;2.17;;
19869;SDS011;10097;50.862;4.696;2022-07-06T07:14:53;9.65;;;2.50;;
19869;SDS011;10097;50.862;4.696;2022-07-06T07:17:19;5.95;;;1.80;;
19869;SDS011;10097;50.862;4.696;2022-07-06T07:19:45;9.82;;;2.63;;
19869;SDS011;10097;50.862;4.696;2022-07-06T07:22:11;6.10;;;2.13;;
19869;SDS011;10097;50.862;4.696;2022-07-06T07:24:36;9.48;;;1.77;;
19869;SDS011;10097;50.862;4.696;2022-07-06T07:27:02;4.75;;;2.08;;
19869;SDS011;10097;50.862;4.696;2022-07-06T07:29:28;8.65;;;1.85;;
19869;SDS011;10097;50.862;4.696;2022-07-06T07:31:54;7.30;;;2.00;;
19869;SDS011;10097;50.862;4.696;2022-07-06T07:34:20;4.57;;;1.60;;
19869;SDS011;10097;50.862;4.696;2022-07-06T07:36:45;4.85;;;1.55;;
19869;SDS011;10097;50.862;4.696;2022-07-06T07:39:11;5.00;;;1.45;;
19869;SDS011;10097;50.862;4.696;2022-07-06T07:41:37;5.82;;;1.65;;
19869;SDS011;10097;50.862;4.696;2022-07-06T07:44:02;5.20;;;1.85;;
19869;SDS011;10097;50.862;4.696;2022-07-06T07:46:28;5.88;;;1.70;;
19869;SDS011;10097;50.862;4.696;2022-07-06T07:48:58;7.03;;;1.92;;
19869;SDS011;10097;50.862;4.696;2022-07-06T07:51:24;5.43;;;1.58;;
19869;SDS011;10097;50.862;4.696;2022-07-06T07:53:49;6.38;;;1.35;;
19869;SDS011;10097;50.862;4.696;2022-07-06T07:56:15;6.53;;;1.23;;
19869;SDS011;10097;50.862;4.696;2022-07-06T07:58:43;5.15;;;1.48;;
19869;SDS011;10097;50.862;4.696;2022-07-06T08:01:13;5.40;;;1.35;;
19869;SDS011;10097;50.862;4.696;2022-07-06T08:03:39;8.10;;;1.30;;
19869;SDS011;10097;50.862;4.696;2022-07-06T08:06:04;9.45;;;1.70;;
19869;SDS011;10097;50.862;4.696;2022-07-06T08:08:30;8.98;;;1.80;;
19869;SDS011;10097;50.862;4.696;2022-07-06T08:10:56;6.95;;;1.40;;
19869;SDS011;10097;50.862;4.696;2022-07-06T08:13:21;8.38;;;1.48;;
19869;SDS011;10097;50.862;4.696;2022-07-06T08:15:47;6.88;;;1.35;;
19869;SDS011;10097;50.862;4.696;2022-07-06T08:18:13;7.63;;;1.17;;
19869;SDS011;10097;50.862;4.696;2022-07-06T08:20:38;8.27;;;1.70;;
19869;SDS011;10097;50.862;4.696;2022-07-06T08:23:04;9.30;;;2.55;;
19869;SDS011;10097;50.862;4.696;2022-07-06T08:25:30;11.23;;;2.58;;
19869;SDS011;10097;50.862;4.696;2022-07-06T08:27:56;9.60;;;1.83;;
19869;SDS011;10097;50.862;4.696;2022-07-06T08:30:22;9.48;;;1.90;;
19869;SDS011;10097;50.862;4.696;2022-07-06T08:32:48;7.18;;;1.70;;
19869;SDS011;10097;50.862;4.696;2022-07-06T08:35:14;7.70;;;1.75;;
19869;SDS011;10097;50.862;4.696;2022-07-06T08:37:41;4.82;;;1.23;;
19869;SDS011;10097;50.862;4.696;2022-07-06T08:40:07;4.35;;;1.05;;
19869;SDS011;10097;50.862;4.696;2022-07-06T08:42:34;9.05;;;1.40;;
19869;SDS011;10097;50.862;4.696;2022-07-06T08:45:05;10.25;;;1.45;;
19869;SDS011;10097;50.862;4.696;2022-07-06T08:47:37;7.00;;;1.20;;
19869;SDS011;10097;50.862;4.696;2022-07-06T08:50:03;6.10;;;1.30;;
19869;SDS011;10097;50.862;4.696;2022-07-06T08:52:30;5.05;;;1.23;;
19869;SDS011;10097;50.862;4.696;2022-07-06T08:54:56;8.88;;;0.98;;
19869;SDS011;10097;50.862;4.696;2022-07-06T08:57:22;9.27;;;1.77;;
19869;SDS011;10097;50.862;4.696;2022-07-06T08:59:49;6.20;;;1.60;;
19869;SDS011;10097;50.862;4.696;2022-07-06T09:02:14;7.78;;;1.73;;
19869;SDS011;10097;50.862;4.696;2022-07-06T09:04:41;6.90;;;1.23;;
19869;SDS011;10097;50.862;4.696;2022-07-06T09:07:08;6.57;;;1.48;;
19869;SDS011;10097;50.862;4.696;2022-07-06T09:09:33;5.32;;;1.33;;
19869;SDS011;10097;50.862;4.696;2022-07-06T09:12:02;6.22;;;1.40;;
19869;SDS011;10097;50.862;4.696;2022-07-06T09:14:28;4.75;;;1.55;;
19869;SDS011;10097;50.862;4.696;2022-07-06T09:17:04;8.30;;;1.50;;
19869;SDS011;10097;50.862;4.696;2022-07-06T09:19:31;5.25;;;1.08;;
19869;SDS011;10097;50.862;4.696;2022-07-06T09:21:59;8.45;;;1.33;;
19869;SDS011;10097;50.862;4.696;2022-07-06T09:24:25;5.65;;;1.15;;
19869;SDS011;10097;50.862;4.696;2022-07-06T09:26:54;7.55;;;1.30;;
19869;SDS011;10097;50.862;4.696;2022-07-06T09:29:28;9.13;;;1.40;;
19869;SDS011;10097;50.862;4.696;2022-07-06T09:31:58;6.50;;;1.60;;
19869;SDS011;10097;50.862;4.696;2022-07-06T09:34:25;8.75;;;1.35;;
19869;SDS011;10097;50.862;4.696;2022-07-06T09:37:04;4.75;;;1.58;;
19869;SDS011;10097;50.862;4.696;2022-07-06T09:39:31;4.38;;;1.30;;
19869;SDS011;10097;50.862;4.696;2022-07-06T09:41:58;6.00;;;1.30;;
19869;SDS011;10097;50.862;4.696;2022-07-06T09:44:25;3.75;;;1.17;;
19869;SDS011;10097;50.862;4.696;2022-07-06T09:46:53;7.10;;;1.42;;
19869;SDS011;10097;50.862;4.696;2022-07-06T09:49:21;5.25;;;1.20;;
19869;SDS011;10097;50.862;4.696;2022-07-06T09:51:49;8.45;;;1.50;;
19869;SDS011;10097;50.862;4.696;2022-07-06T09:54:16;6.55;;;1.30;;
19869;SDS011;10097;50.862;4.696;2022-07-06T09:56:43;5.63;;;1.33;;
19869;SDS011;10097;50.862;4.696;2022-07-06T09:59:15;5.93;;;1.20;;
19869;SDS011;10097;50.862;4.696;2022-07-06T10:01:42;6.15;;;1.25;;
19869;SDS011;10097;50.862;4.696;2022-07-06T10:04:09;6.40;;;1.23;;
19869;SDS011;10097;50.862;4.696;2022-07-06T10:06:40;8.13;;;1.65;;
19869;SDS011;10097;50.862;4.696;2022-07-06T10:09:09;9.88;;;1.02;;
19869;SDS011;10097;50.862;4.696;2022-07-06T10:11:37;5.63;;;1.38;;
19869;SDS011;10097;50.862;4.696;2022-07-06T10:14:14;3.70;;;1.10;;
19869;SDS011;10097;50.862;4.696;2022-07-06T10:16:44;4.78;;;0.90;;
19869;SDS011;10097;50.862;4.696;2022-07-06T10:19:14;13.07;;;1.33;;
19869;SDS011;10097;50.862;4.696;2022-07-06T10:21:41;9.18;;;1.38;;
19869;SDS011;10097;50.862;4.696;2022-07-06T10:24:08;9.52;;;1.77;;
19869;SDS011;10097;50.862;4.696;2022-07-06T10:26:37;3.22;;;1.00;;
19869;SDS011;10097;50.862;4.696;2022-07-06T10:29:04;8.80;;;1.23;;
19869;SDS011;10097;50.862;4.696;2022-07-06T10:31:32;9.65;;;1.42;;
19869;SDS011;10097;50.862;4.696;2022-07-06T10:34:01;3.25;;;0.90;;
19869;SDS011;10097;50.862;4.696;2022-07-06T10:36:30;4.78;;;1.02;;
19869;SDS011;10097;50.862;4.696;2022-07-06T10:38:56;4.75;;;1.17;;
19869;SDS011;10097;50.862;4.696;2022-07-06T10:41:29;3.20;;;0.85;;
19869;SDS011;10097;50.862;4.696;2022-07-06T10:43:57;3.50;;;0.98;;
19869;SDS011;10097;50.862;4.696;2022-07-06T10:47:02;6.15;;;1.00;;
19869;SDS011;10097;50.862;4.696;2022-07-06T10:49:27;5.68;;;1.30;;
19869;SDS011;10097;50.862;4.696;2022-07-06T10:51:52;7.13;;;1.25;;
19869;SDS011;10097;50.862;4.696;2022-07-06T10:54:21;3.92;;;1.13;;
19869;SDS011;10097;50.862;4.696;2022-07-06T10:56:48;9.82;;;2.17;;
19869;SDS011;10097;50.862;4.696;2022-07-06T10:59:22;5.80;;;1.02;;
19869;SDS011;10097;50.862;4.696;2022-07-06T11:04:36;9.65;;;1.70;;
19869;SDS011;10097;50.862;4.696;2022-07-06T11:07:16;4.13;;;1.23;;
19869;SDS011;10097;50.862;4.696;2022-07-06T11:09:56;7.07;;;1.27;;
19869;SDS011;10097;50.862;4.696;2022-07-06T11:12:23;7.35;;;1.20;;
19869;SDS011;10097;50.862;4.696;2022-07-06T11:14:49;5.13;;;0.73;;
19869;SDS011;10097;50.862;4.696;2022-07-06T11:17:16;7.40;;;1.50;;
19869;SDS011;10097;50.862;4.696;2022-07-06T11:19:55;5.15;;;1.00;;
19869;SDS011;10097;50.862;4.696;2022-07-06T11:22:22;5.78;;;1.73;;
19869;SDS011;10097;50.862;4.696;2022-07-06T11:24:54;7.80;;;2.08;;
19869;SDS011;10097;50.862;4.696;2022-07-06T11:27:22;4.47;;;1.20;;
19869;SDS011;10097;50.862;4.696;2022-07-06T11:29:48;5.35;;;1.38;;
19869;SDS011;10097;50.862;4.696;2022-07-06T11:32:14;7.10;;;1.40;;
19869;SDS011;10097;50.862;4.696;2022-07-06T11:34:43;5.45;;;1.52;;
19869;SDS011;10097;50.862;4.696;2022-07-06T11:37:10;9.43;;;1.45;;
19869;SDS011;10097;50.862;4.696;2022-07-06T11:39:41;7.40;;;1.30;;
19869;SDS011;10097;50.862;4.696;2022-07-06T11:42:08;7.18;;;1.40;;
19869;SDS011;10097;50.862;4.696;2022-07-06T11:44:35;6.00;;;1.20;;
19869;SDS011;10097;50.862;4.696;2022-07-06T11:47:02;3.92;;;1.33;;
19869;SDS011;10097;50.862;4.696;2022-07-06T11:49:29;6.15;;;1.48;;
19869;SDS011;10097;50.862;4.696;2022-07-06T11:51:56;4.45;;;1.05;;
19869;SDS011;10097;50.862;4.696;2022-07-06T11:54:25;6.65;;;1.67;;
19869;SDS011;10097;50.862;4.696;2022-07-06T11:56:53;8.75;;;1.77;;
19869;SDS011;10097;50.862;4.696;2022-07-06T11:59:27;6.20;;;1.30;;
19869;SDS011;10097;50.862;4.696;2022-07-06T12:02:00;9.10;;;1.65;;
19869;SDS011;10097;50.862;4.696;2022-07-06T12:04:30;6.57;;;1.77;;
19869;SDS011;10097;50.862;4.696;2022-07-06T12:07:00;8.18;;;1.45;;
19869;SDS011;10097;50.862;4.696;2022-07-06T12:09:46;7.28;;;1.73;;
19869;SDS011;10097;50.862;4.696;2022-07-06T12:12:16;6.00;;;1.30;;
19869;SDS011;10097;50.862;4.696;2022-07-06T12:14:42;9.57;;;1.80;;
19869;SDS011;10097;50.862;4.696;2022-07-06T12:17:12;7.55;;;1.77;;
19869;SDS011;10097;50.862;4.696;2022-07-06T12:19:39;6.10;;;1.90;;
19869;SDS011;10097;50.862;4.696;2022-07-06T12:22:06;7.00;;;1.50;;
19869;SDS011;10097;50.862;4.696;2022-07-06T12:24:33;8.57;;;2.10;;
19869;SDS011;10097;50.862;4.696;2022-07-06T12:27:09;8.88;;;2.05;;
19869;SDS011;10097;50.862;4.696;2022-07-06T12:29:35;5.55;;;1.30;;
19869;SDS011;10097;50.862;4.696;2022-07-06T12:32:01;7.25;;;1.63;;
19869;SDS011;10097;50.862;4.696;2022-07-06T12:34:30;9.15;;;1.65;;
19869;SDS011;10097;50.862;4.696;2022-07-06T12:36:59;7.25;;;1.67;;
19869;SDS011;10097;50.862;4.696;2022-07-06T12:39:40;5.65;;;1.58;;
19869;SDS011;10097;50.862;4.696;2022-07-06T12:42:07;10.98;;;2.13;;
19869;SDS011;10097;50.862;4.696;2022-07-06T12:44:40;9.77;;;1.50;;
19869;SDS011;10097;50.862;4.696;2022-07-06T12:47:16;8.52;;;1.70;;
19869;SDS011;10097;50.862;4.696;2022-07-06T12:49:43;9.80;;;2.78;;
19869;SDS011;10097;50.862;4.696;2022-07-06T12:52:13;8.60;;;2.13;;
19869;SDS011;10097;50.862;4.696;2022-07-06T12:54:45;8.85;;;1.80;;
19869;SDS011;10097;50.862;4.696;2022-07-06T12:57:16;6.18;;;2.17;;
19869;SDS011;10097;50.862;4.696;2022-07-06T13:04:43;11.27;;;1.95;;
19869;SDS011;10097;50.862;4.696;2022-07-06T13:07:18;9.27;;;1.98;;
19869;SDS011;10097;50.862;4.696;2022-07-06T13:09:45;8.05;;;1.40;;
19869;SDS011;10097;50.862;4.696;2022-07-06T13:12:10;6.93;;;1.75;;
19869;SDS011;10097;50.862;4.696;2022-07-06T13:14:36;6.10;;;1.73;;
19869;SDS011;10097;50.862;4.696;2022-07-06T13:17:02;5.47;;;1.55;;
19869;SDS011;10097;50.862;4.696;2022-07-06T13:19:30;8.20;;;1.80;;
19869;SDS011;10097;50.862;4.696;2022-07-06T13:21:56;9.05;;;1.88;;
19869;SDS011;10097;50.862;4.696;2022-07-06T13:24:25;5.18;;;1.25;;
19869;SDS011;10097;50.862;4.696;2022-07-06T13:26:53;11.70;;;1.83;;
19869;SDS011;10097;50.862;4.696;2022-07-06T13:29:19;7.95;;;1.85;;
19869;SDS011;10097;50.862;4.696;2022-07-06T13:31:48;6.30;;;1.60;;
19869;SDS011;10097;50.862;4.696;2022-07-06T13:34:14;8.90;;;1.70;;
19869;SDS011;10097;50.862;4.696;2022-07-06T13:36:40;6.88;;;1.30;;
19869;SDS011;10097;50.862;4.696;2022-07-06T13:39:06;8.60;;;1.58;;
19869;SDS011;10097;50.862;4.696;2022-07-06T13:41:32;4.90;;;1.30;;
19869;SDS011;10097;50.862;4.696;2022-07-06T13:44:00;7.43;;;1.65;;
19869;SDS011;10097;50.862;4.696;2022-07-06T13:46:27;9.23;;;1.52;;
19869;SDS011;10097;50.862;4.696;2022-07-06T13:48:54;7.90;;;1.67;;
19869;SDS011;10097;50.862;4.696;2022-07-06T13:51:22;8.80;;;1.40;;
19869;SDS011;10097;50.862;4.696;2022-07-06T13:53:52;5.20;;;1.48;;
19869;SDS011;10097;50.862;4.696;2022-07-06T13:56:18;8.77;;;1.83;;
19869;SDS011;10097;50.862;4.696;2022-07-06T13:58:44;6.75;;;1.88;;
19869;SDS011;10097;50.862;4.696;2022-07-06T14:01:11;7.25;;;1.65;;
19869;SDS011;10097;50.862;4.696;2022-07-06T14:03:37;8.18;;;2.00;;
19869;SDS011;10097;50.862;4.696;2022-07-06T14:06:03;10.50;;;1.30;;
19869;SDS011;10097;50.862;4.696;2022-07-06T14:08:32;7.07;;;1.65;;
19869;SDS011;10097;50.862;4.696;2022-07-06T14:11:01;9.95;;;1.42;;
19869;SDS011;10097;50.862;4.696;2022-07-06T14:13:28;5.85;;;1.70;;
19869;SDS011;10097;50.862;4.696;2022-07-06T14:15:54;5.57;;;1.33;;
19869;SDS011;10097;50.862;4.696;2022-07-06T14:18:20;5.03;;;1.52;;
19869;SDS011;10097;50.862;4.696;2022-07-06T14:20:46;6.78;;;1.50;;
19869;SDS011;10097;50.862;4.696;2022-07-06T14:23:13;4.18;;;1.42;;
19869;SDS011;10097;50.862;4.696;2022-07-06T14:25:39;10.38;;;2.47;;
19869;SDS011;10097;50.862;4.696;2022-07-06T14:28:05;4.53;;;1.35;;
19869;SDS011;10097;50.862;4.696;2022-07-06T14:30:32;3.50;;;0.98;;
19869;SDS011;10097;50.862;4.696;2022-07-06T14:32:58;5.05;;;1.20;;
19869;SDS011;10097;50.862;4.696;2022-07-06T14:35:24;6.63;;;1.50;;
19869;SDS011;10097;50.862;4.696;2022-07-06T14:37:50;5.60;;;1.33;;
19869;SDS011;10097;50.862;4.696;2022-07-06T14:40:16;5.75;;;1.30;;
19869;SDS011;10097;50.862;4.696;2022-07-06T14:42:42;6.57;;;1.20;;
19869;SDS011;10097;50.862;4.696;2022-07-06T14:45:10;5.25;;;1.15;;
19869;SDS011;10097;50.862;4.696;2022-07-06T14:47:35;6.43;;;1.27;;
19869;SDS011;10097;50.862;4.696;2022-07-06T14:50:02;6.57;;;1.77;;
19869;SDS011;10097;50.862;4.696;2022-07-06T14:52:28;5.55;;;1.30;;
19869;SDS011;10097;50.862;4.696;2022-07-06T14:54:54;9.45;;;1.80;;
19869;SDS011;10097;50.862;4.696;2022-07-06T14:57:22;6.40;;;1.40;;
19869;SDS011;10097;50.862;4.696;2022-07-06T14:59:47;5.95;;;1.27;;